Portada
METAR-TAF:

METAR-TAF

Aeroports :

Illa Christmas, Austràlia

latitud: 10-26S, longitud: 105-41E, altitud: 279 m

Observació

L'informe es va fer fa 44 minuts, a les 20:30 UTC
Vent 8 kt del Sud-Est
Temperatura 25°C
Humitat 79%
Pressió 1013 hPa
Visibilitat 10 km o més
Núvols disperses a una alçada de 2100 ft
Núvols disperses a una alçada de 2800 ft
Cel cobert a una alçada de 8300 ft

METAR: YPXM 262030Z AUTO 13008KT 9999 // SCT021 SCT028 OVC083 25/21 Q1013

Hora: 04:14 (21:14 UTC)

Pronòstic

L'informe es va fer fa 4 hores i 16 minuts, a les 16:58 UTC
Pronòstic vàlid del 26 a les 16 UTC al 27 a les 18 UTC
Vent 10 kt del Sud-Est
Visibilitat 10 km o més
Cel ennuvolat a una alçada de 1600 ft

TAF: YPXM 261658Z 2616/2718 14010KT 9999 BKN016

Observacions i pronòstics meteorològics de més de 4000 aeroports (METAR i TAF).

Les estacions disponibles són els punts grocs i vermells al mapa.

Posi el ratolí al punt desitjat per veure el nom de l'estació.

Feu clic per veure les observacions i els pronòstics meteorològics.

Per canviar el mapa: feu clic els botons verds amb una creu de color negre per apropar; al botó verd amb un guió per allunyar la imatge; o en les fletxes verdes per a mapes adjacents.


METAR-TAF: